Myakka City, Florida
Current Conditions -  °F | °C
As of 1:53 PM on Thursday 27 Nov 2014 (Local Time) from KSRQ Reporting Station
Clear Clear  
Wind Chill: 70°   Ceiling: Unl
Heat Index: 70°   Visibility: 10mi
Dew Point: 54°   Wind: 12mph
Humidity: 57%   Direction: 320°NW
Pressure: 30.19"   Gusts: NA
Location:  27.35°N, 82.16°W
Report Text: KSRQ 271853Z 32010KT 10SM CLR 21/12 A3019 RMK AO2 SLP221 T02110122
Loading
Personal Weather Stations






























Interactive Weather Map New forecast layout! Learn more

10-Day Weather Forecast

Advertisements
Track Severe Weather on mobile